sensor_id;sensor_type;location;lat;lon;timestamp;P1;durP1;ratioP1;P2;durP2;ratioP2
12383;SDS011;6256;63.808;20.336;2022-08-19T00:00:29;1.92;;;1.45;;
12383;SDS011;6256;63.808;20.336;2022-08-19T00:02:55;1.42;;;1.30;;
12383;SDS011;6256;63.808;20.336;2022-08-19T00:05:21;1.77;;;1.15;;
12383;SDS011;6256;63.808;20.336;2022-08-19T00:07:47;2.95;;;1.48;;
12383;SDS011;6256;63.808;20.336;2022-08-19T00:10:15;1.25;;;1.10;;
12383;SDS011;6256;63.808;20.336;2022-08-19T00:12:42;2.40;;;1.30;;
12383;SDS011;6256;63.808;20.336;2022-08-19T00:15:10;1.85;;;1.38;;
12383;SDS011;6256;63.808;20.336;2022-08-19T00:17:42;1.73;;;1.30;;
12383;SDS011;6256;63.808;20.336;2022-08-19T00:20:10;1.75;;;1.45;;
12383;SDS011;6256;63.808;20.336;2022-08-19T00:22:37;2.08;;;1.40;;
12383;SDS011;6256;63.808;20.336;2022-08-19T00:25:06;1.83;;;1.40;;
12383;SDS011;6256;63.808;20.336;2022-08-19T00:27:32;1.95;;;1.65;;
12383;SDS011;6256;63.808;20.336;2022-08-19T00:29:58;1.90;;;1.50;;
12383;SDS011;6256;63.808;20.336;2022-08-19T00:32:25;2.47;;;1.50;;
12383;SDS011;6256;63.808;20.336;2022-08-19T00:34:51;3.33;;;1.50;;
12383;SDS011;6256;63.808;20.336;2022-08-19T00:37:18;1.88;;;1.40;;
12383;SDS011;6256;63.808;20.336;2022-08-19T00:39:45;3.38;;;1.48;;
12383;SDS011;6256;63.808;20.336;2022-08-19T00:42:10;2.10;;;1.65;;
12383;SDS011;6256;63.808;20.336;2022-08-19T00:44:38;2.85;;;1.73;;
12383;SDS011;6256;63.808;20.336;2022-08-19T00:47:04;4.85;;;1.83;;
12383;SDS011;6256;63.808;20.336;2022-08-19T00:49:33;3.17;;;1.90;;
12383;SDS011;6256;63.808;20.336;2022-08-19T00:52:07;3.83;;;1.98;;
12383;SDS011;6256;63.808;20.336;2022-08-19T00:54:37;7.13;;;1.83;;
12383;SDS011;6256;63.808;20.336;2022-08-19T00:57:05;2.65;;;1.70;;
12383;SDS011;6256;63.808;20.336;2022-08-19T00:59:34;5.38;;;2.35;;
12383;SDS011;6256;63.808;20.336;2022-08-19T01:02:03;6.90;;;1.98;;
12383;SDS011;6256;63.808;20.336;2022-08-19T01:04:29;3.38;;;2.05;;
12383;SDS011;6256;63.808;20.336;2022-08-19T01:06:55;4.55;;;2.10;;
12383;SDS011;6256;63.808;20.336;2022-08-19T01:09:21;6.25;;;1.90;;
12383;SDS011;6256;63.808;20.336;2022-08-19T01:11:47;4.57;;;2.13;;
12383;SDS011;6256;63.808;20.336;2022-08-19T01:14:13;4.20;;;1.83;;
12383;SDS011;6256;63.808;20.336;2022-08-19T01:16:41;4.18;;;2.38;;
12383;SDS011;6256;63.808;20.336;2022-08-19T01:19:12;3.28;;;2.13;;
12383;SDS011;6256;63.808;20.336;2022-08-19T01:21:51;5.05;;;2.08;;
12383;SDS011;6256;63.808;20.336;2022-08-19T01:24:22;5.03;;;2.13;;
12383;SDS011;6256;63.808;20.336;2022-08-19T01:26:48;2.60;;;1.90;;
12383;SDS011;6256;63.808;20.336;2022-08-19T01:29:14;4.75;;;2.45;;
12383;SDS011;6256;63.808;20.336;2022-08-19T01:31:40;3.55;;;2.00;;
12383;SDS011;6256;63.808;20.336;2022-08-19T01:34:06;6.32;;;2.30;;
12383;SDS011;6256;63.808;20.336;2022-08-19T01:36:33;6.00;;;2.22;;
12383;SDS011;6256;63.808;20.336;2022-08-19T01:39:06;6.22;;;2.25;;
12383;SDS011;6256;63.808;20.336;2022-08-19T01:41:34;7.07;;;2.80;;
12383;SDS011;6256;63.808;20.336;2022-08-19T01:44:00;4.53;;;2.50;;
12383;SDS011;6256;63.808;20.336;2022-08-19T01:46:28;8.18;;;3.13;;
12383;SDS011;6256;63.808;20.336;2022-08-19T01:48:55;7.90;;;2.88;;
12383;SDS011;6256;63.808;20.336;2022-08-19T01:51:20;7.25;;;3.17;;
12383;SDS011;6256;63.808;20.336;2022-08-19T01:53:49;6.18;;;2.42;;
12383;SDS011;6256;63.808;20.336;2022-08-19T01:56:16;6.03;;;2.58;;
12383;SDS011;6256;63.808;20.336;2022-08-19T01:58:48;6.88;;;2.70;;
12383;SDS011;6256;63.808;20.336;2022-08-19T02:01:20;10.05;;;2.90;;
12383;SDS011;6256;63.808;20.336;2022-08-19T02:03:46;5.32;;;2.67;;
12383;SDS011;6256;63.808;20.336;2022-08-19T02:06:12;9.73;;;2.88;;
12383;SDS011;6256;63.808;20.336;2022-08-19T02:08:39;8.93;;;3.10;;
12383;SDS011;6256;63.808;20.336;2022-08-19T02:11:05;7.97;;;2.85;;
12383;SDS011;6256;63.808;20.336;2022-08-19T02:13:32;8.73;;;2.95;;
12383;SDS011;6256;63.808;20.336;2022-08-19T02:15:59;9.95;;;3.00;;
12383;SDS011;6256;63.808;20.336;2022-08-19T02:18:24;7.57;;;3.13;;
12383;SDS011;6256;63.808;20.336;2022-08-19T02:20:51;10.13;;;3.35;;
12383;SDS011;6256;63.808;20.336;2022-08-19T02:23:17;7.00;;;3.25;;
12383;SDS011;6256;63.808;20.336;2022-08-19T02:25:44;10.10;;;3.08;;
12383;SDS011;6256;63.808;20.336;2022-08-19T02:28:12;8.73;;;3.22;;
12383;SDS011;6256;63.808;20.336;2022-08-19T02:30:38;7.60;;;3.22;;
12383;SDS011;6256;63.808;20.336;2022-08-19T02:33:07;13.57;;;3.97;;
12383;SDS011;6256;63.808;20.336;2022-08-19T02:35:33;9.15;;;3.28;;
12383;SDS011;6256;63.808;20.336;2022-08-19T02:37:59;13.07;;;3.33;;
12383;SDS011;6256;63.808;20.336;2022-08-19T02:40:52;7.03;;;3.00;;
12383;SDS011;6256;63.808;20.336;2022-08-19T02:43:23;11.18;;;3.53;;
12383;SDS011;6256;63.808;20.336;2022-08-19T02:45:49;10.98;;;3.60;;
12383;SDS011;6256;63.808;20.336;2022-08-19T02:48:17;10.88;;;3.85;;
12383;SDS011;6256;63.808;20.336;2022-08-19T02:50:47;7.85;;;3.15;;
12383;SDS011;6256;63.808;20.336;2022-08-19T02:53:16;8.38;;;3.55;;
12383;SDS011;6256;63.808;20.336;2022-08-19T02:55:45;9.23;;;3.83;;
12383;SDS011;6256;63.808;20.336;2022-08-19T02:58:12;10.05;;;3.65;;
12383;SDS011;6256;63.808;20.336;2022-08-19T03:00:43;9.50;;;3.53;;
12383;SDS011;6256;63.808;20.336;2022-08-19T03:03:09;12.90;;;3.58;;
12383;SDS011;6256;63.808;20.336;2022-08-19T03:05:36;10.80;;;4.35;;
12383;SDS011;6256;63.808;20.336;2022-08-19T03:08:02;10.27;;;3.40;;
12383;SDS011;6256;63.808;20.336;2022-08-19T03:10:30;9.60;;;3.38;;
12383;SDS011;6256;63.808;20.336;2022-08-19T03:12:57;9.98;;;3.80;;
12383;SDS011;6256;63.808;20.336;2022-08-19T03:15:22;7.30;;;3.20;;
12383;SDS011;6256;63.808;20.336;2022-08-19T03:17:48;8.68;;;4.00;;
12383;SDS011;6256;63.808;20.336;2022-08-19T03:20:14;10.82;;;3.92;;
12383;SDS011;6256;63.808;20.336;2022-08-19T03:22:40;12.18;;;3.53;;
12383;SDS011;6256;63.808;20.336;2022-08-19T03:25:08;9.82;;;4.40;;
12383;SDS011;6256;63.808;20.336;2022-08-19T03:27:34;8.30;;;4.03;;
12383;SDS011;6256;63.808;20.336;2022-08-19T03:30:00;12.68;;;4.05;;
12383;SDS011;6256;63.808;20.336;2022-08-19T03:32:26;11.07;;;4.43;;
12383;SDS011;6256;63.808;20.336;2022-08-19T03:34:52;12.55;;;4.65;;
12383;SDS011;6256;63.808;20.336;2022-08-19T03:37:18;10.85;;;4.90;;
12383;SDS011;6256;63.808;20.336;2022-08-19T03:39:43;12.70;;;4.10;;
12383;SDS011;6256;63.808;20.336;2022-08-19T03:42:09;13.18;;;4.65;;
12383;SDS011;6256;63.808;20.336;2022-08-19T03:44:36;14.73;;;4.25;;
12383;SDS011;6256;63.808;20.336;2022-08-19T03:47:03;18.55;;;4.78;;
12383;SDS011;6256;63.808;20.336;2022-08-19T03:49:30;15.10;;;4.85;;
12383;SDS011;6256;63.808;20.336;2022-08-19T03:51:58;15.43;;;5.25;;
12383;SDS011;6256;63.808;20.336;2022-08-19T03:54:27;19.50;;;5.15;;
12383;SDS011;6256;63.808;20.336;2022-08-19T03:56:54;16.17;;;5.15;;
12383;SDS011;6256;63.808;20.336;2022-08-19T03:59:24;18.77;;;5.45;;
12383;SDS011;6256;63.808;20.336;2022-08-19T04:01:59;12.57;;;5.13;;
12383;SDS011;6256;63.808;20.336;2022-08-19T04:04:28;15.45;;;4.93;;
12383;SDS011;6256;63.808;20.336;2022-08-19T04:06:54;11.60;;;5.15;;
12383;SDS011;6256;63.808;20.336;2022-08-19T04:09:21;12.23;;;4.32;;
12383;SDS011;6256;63.808;20.336;2022-08-19T04:11:47;13.80;;;4.85;;
12383;SDS011;6256;63.808;20.336;2022-08-19T04:14:16;12.75;;;4.68;;
12383;SDS011;6256;63.808;20.336;2022-08-19T04:16:45;10.95;;;4.45;;
12383;SDS011;6256;63.808;20.336;2022-08-19T04:19:12;16.80;;;5.18;;
12383;SDS011;6256;63.808;20.336;2022-08-19T04:21:38;13.48;;;4.88;;
12383;SDS011;6256;63.808;20.336;2022-08-19T04:24:05;14.52;;;5.05;;
12383;SDS011;6256;63.808;20.336;2022-08-19T04:26:32;13.15;;;4.90;;
12383;SDS011;6256;63.808;20.336;2022-08-19T04:28:59;14.77;;;5.85;;
12383;SDS011;6256;63.808;20.336;2022-08-19T04:31:28;17.95;;;5.25;;
12383;SDS011;6256;63.808;20.336;2022-08-19T04:33:56;12.65;;;5.03;;
12383;SDS011;6256;63.808;20.336;2022-08-19T04:36:25;10.50;;;4.70;;
12383;SDS011;6256;63.808;20.336;2022-08-19T04:38:53;17.17;;;5.28;;
12383;SDS011;6256;63.808;20.336;2022-08-19T04:41:23;13.98;;;5.32;;
12383;SDS011;6256;63.808;20.336;2022-08-19T04:44:08;12.52;;;4.95;;
12383;SDS011;6256;63.808;20.336;2022-08-19T04:46:35;18.83;;;5.07;;
12383;SDS011;6256;63.808;20.336;2022-08-19T04:49:01;17.70;;;5.40;;
12383;SDS011;6256;63.808;20.336;2022-08-19T04:51:30;12.07;;;5.30;;
12383;SDS011;6256;63.808;20.336;2022-08-19T04:53:57;13.40;;;4.47;;
12383;SDS011;6256;63.808;20.336;2022-08-19T04:56:24;15.18;;;4.80;;
12383;SDS011;6256;63.808;20.336;2022-08-19T04:58:52;15.20;;;5.47;;
12383;SDS011;6256;63.808;20.336;2022-08-19T05:01:22;14.75;;;5.55;;
12383;SDS011;6256;63.808;20.336;2022-08-19T05:03:50;15.95;;;5.18;;
12383;SDS011;6256;63.808;20.336;2022-08-19T05:06:16;11.88;;;5.03;;
12383;SDS011;6256;63.808;20.336;2022-08-19T05:08:44;14.95;;;5.93;;
12383;SDS011;6256;63.808;20.336;2022-08-19T05:11:14;11.32;;;4.80;;
12383;SDS011;6256;63.808;20.336;2022-08-19T05:13:42;15.02;;;5.45;;
12383;SDS011;6256;63.808;20.336;2022-08-19T05:16:10;15.13;;;4.65;;
12383;SDS011;6256;63.808;20.336;2022-08-19T05:18:37;12.77;;;5.18;;
12383;SDS011;6256;63.808;20.336;2022-08-19T05:21:22;12.63;;;5.10;;
12383;SDS011;6256;63.808;20.336;2022-08-19T05:24:07;12.85;;;5.32;;
12383;SDS011;6256;63.808;20.336;2022-08-19T05:26:37;13.50;;;5.78;;
12383;SDS011;6256;63.808;20.336;2022-08-19T05:29:04;10.25;;;4.82;;
12383;SDS011;6256;63.808;20.336;2022-08-19T05:31:32;10.70;;;4.75;;
12383;SDS011;6256;63.808;20.336;2022-08-19T05:33:58;11.50;;;4.57;;
12383;SDS011;6256;63.808;20.336;2022-08-19T05:36:27;11.88;;;5.15;;
12383;SDS011;6256;63.808;20.336;2022-08-19T05:38:54;11.48;;;5.40;;
12383;SDS011;6256;63.808;20.336;2022-08-19T05:41:20;9.05;;;5.05;;
12383;SDS011;6256;63.808;20.336;2022-08-19T05:43:48;8.68;;;5.03;;
12383;SDS011;6256;63.808;20.336;2022-08-19T05:46:18;8.27;;;4.40;;
12383;SDS011;6256;63.808;20.336;2022-08-19T05:48:44;8.82;;;4.80;;
12383;SDS011;6256;63.808;20.336;2022-08-19T05:51:11;9.05;;;4.50;;
12383;SDS011;6256;63.808;20.336;2022-08-19T05:53:37;7.80;;;4.93;;
12383;SDS011;6256;63.808;20.336;2022-08-19T05:56:04;7.10;;;4.10;;
12383;SDS011;6256;63.808;20.336;2022-08-19T05:58:38;11.45;;;5.07;;
12383;SDS011;6256;63.808;20.336;2022-08-19T06:01:04;8.68;;;4.05;;
12383;SDS011;6256;63.808;20.336;2022-08-19T06:03:35;9.15;;;4.45;;
12383;SDS011;6256;63.808;20.336;2022-08-19T06:06:03;9.27;;;4.88;;
12383;SDS011;6256;63.808;20.336;2022-08-19T06:08:30;8.80;;;4.70;;
12383;SDS011;6256;63.808;20.336;2022-08-19T06:10:56;7.72;;;4.60;;
12383;SDS011;6256;63.808;20.336;2022-08-19T06:13:22;9.85;;;4.82;;
12383;SDS011;6256;63.808;20.336;2022-08-19T06:15:50;9.35;;;5.20;;
12383;SDS011;6256;63.808;20.336;2022-08-19T06:18:16;9.13;;;5.13;;
12383;SDS011;6256;63.808;20.336;2022-08-19T06:20:42;10.52;;;5.82;;
12383;SDS011;6256;63.808;20.336;2022-08-19T06:23:08;9.30;;;5.57;;
12383;SDS011;6256;63.808;20.336;2022-08-19T06:25:35;11.55;;;5.85;;
12383;SDS011;6256;63.808;20.336;2022-08-19T06:28:01;11.40;;;5.40;;
12383;SDS011;6256;63.808;20.336;2022-08-19T06:30:27;9.30;;;5.20;;
12383;SDS011;6256;63.808;20.336;2022-08-19T06:32:53;11.10;;;6.28;;
12383;SDS011;6256;63.808;20.336;2022-08-19T06:35:19;9.77;;;5.22;;
12383;SDS011;6256;63.808;20.336;2022-08-19T06:37:45;10.93;;;5.38;;
12383;SDS011;6256;63.808;20.336;2022-08-19T06:40:11;7.18;;;5.00;;
12383;SDS011;6256;63.808;20.336;2022-08-19T06:42:37;9.20;;;5.30;;
12383;SDS011;6256;63.808;20.336;2022-08-19T06:45:04;8.32;;;4.70;;
12383;SDS011;6256;63.808;20.336;2022-08-19T06:47:32;8.27;;;5.20;;
12383;SDS011;6256;63.808;20.336;2022-08-19T06:49:59;9.20;;;5.50;;
12383;SDS011;6256;63.808;20.336;2022-08-19T06:52:27;8.60;;;4.97;;
12383;SDS011;6256;63.808;20.336;2022-08-19T06:54:54;8.50;;;4.75;;
12383;SDS011;6256;63.808;20.336;2022-08-19T06:57:21;8.25;;;5.50;;
12383;SDS011;6256;63.808;20.336;2022-08-19T06:59:48;6.60;;;5.03;;
12383;SDS011;6256;63.808;20.336;2022-08-19T07:02:13;8.02;;;5.20;;
12383;SDS011;6256;63.808;20.336;2022-08-19T07:04:39;7.80;;;4.63;;
12383;SDS011;6256;63.808;20.336;2022-08-19T07:07:09;7.53;;;5.05;;
12383;SDS011;6256;63.808;20.336;2022-08-19T07:09:40;9.70;;;5.55;;
12383;SDS011;6256;63.808;20.336;2022-08-19T07:12:08;9.73;;;5.57;;
12383;SDS011;6256;63.808;20.336;2022-08-19T07:14:36;9.55;;;5.53;;
12383;SDS011;6256;63.808;20.336;2022-08-19T07:17:03;10.05;;;5.38;;
12383;SDS011;6256;63.808;20.336;2022-08-19T07:19:32;8.70;;;5.40;;
12383;SDS011;6256;63.808;20.336;2022-08-19T07:21:58;7.55;;;5.43;;
12383;SDS011;6256;63.808;20.336;2022-08-19T07:24:27;8.20;;;4.68;;
12383;SDS011;6256;63.808;20.336;2022-08-19T07:26:54;6.72;;;4.88;;
12383;SDS011;6256;63.808;20.336;2022-08-19T07:29:22;9.00;;;5.35;;
12383;SDS011;6256;63.808;20.336;2022-08-19T07:31:49;7.78;;;5.07;;
12383;SDS011;6256;63.808;20.336;2022-08-19T07:34:15;8.23;;;5.65;;
12383;SDS011;6256;63.808;20.336;2022-08-19T07:36:42;8.10;;;5.53;;
12383;SDS011;6256;63.808;20.336;2022-08-19T07:39:13;8.48;;;5.70;;
12383;SDS011;6256;63.808;20.336;2022-08-19T07:41:41;7.90;;;5.57;;
12383;SDS011;6256;63.808;20.336;2022-08-19T07:44:08;8.38;;;5.85;;
12383;SDS011;6256;63.808;20.336;2022-08-19T07:46:36;9.23;;;6.25;;
12383;SDS011;6256;63.808;20.336;2022-08-19T07:49:04;10.18;;;5.90;;
12383;SDS011;6256;63.808;20.336;2022-08-19T07:51:31;9.75;;;6.47;;
12383;SDS011;6256;63.808;20.336;2022-08-19T07:53:57;8.70;;;6.07;;
12383;SDS011;6256;63.808;20.336;2022-08-19T07:56:23;8.15;;;5.82;;
12383;SDS011;6256;63.808;20.336;2022-08-19T07:58:50;9.10;;;5.45;;
12383;SDS011;6256;63.808;20.336;2022-08-19T08:01:21;8.40;;;4.97;;
12383;SDS011;6256;63.808;20.336;2022-08-19T08:03:49;6.68;;;5.28;;
12383;SDS011;6256;63.808;20.336;2022-08-19T08:06:35;6.72;;;4.88;;
12383;SDS011;6256;63.808;20.336;2022-08-19T08:09:22;10.48;;;5.20;;
12383;SDS011;6256;63.808;20.336;2022-08-19T08:12:00;7.80;;;5.15;;
12383;SDS011;6256;63.808;20.336;2022-08-19T08:14:30;8.15;;;5.07;;
12383;SDS011;6256;63.808;20.336;2022-08-19T08:17:24;8.93;;;5.13;;
12383;SDS011;6256;63.808;20.336;2022-08-19T08:19:51;6.60;;;4.82;;
12383;SDS011;6256;63.808;20.336;2022-08-19T08:22:18;7.63;;;5.18;;
12383;SDS011;6256;63.808;20.336;2022-08-19T08:25:10;6.63;;;4.75;;
12383;SDS011;6256;63.808;20.336;2022-08-19T08:27:42;5.70;;;4.63;;
12383;SDS011;6256;63.808;20.336;2022-08-19T08:30:10;6.53;;;4.55;;
12383;SDS011;6256;63.808;20.336;2022-08-19T08:32:42;9.68;;;5.07;;
12383;SDS011;6256;63.808;20.336;2022-08-19T08:35:09;7.80;;;5.00;;
12383;SDS011;6256;63.808;20.336;2022-08-19T08:37:37;8.38;;;4.97;;
12383;SDS011;6256;63.808;20.336;2022-08-19T08:40:05;7.22;;;4.90;;
12383;SDS011;6256;63.808;20.336;2022-08-19T08:42:44;7.97;;;4.72;;
12383;SDS011;6256;63.808;20.336;2022-08-19T08:45:17;9.32;;;5.80;;
12383;SDS011;6256;63.808;20.336;2022-08-19T08:47:44;6.65;;;4.93;;
12383;SDS011;6256;63.808;20.336;2022-08-19T08:50:25;9.25;;;5.28;;
12383;SDS011;6256;63.808;20.336;2022-08-19T08:53:01;7.57;;;5.47;;
12383;SDS011;6256;63.808;20.336;2022-08-19T08:55:29;8.30;;;5.22;;
12383;SDS011;6256;63.808;20.336;2022-08-19T09:00:39;7.50;;;4.80;;
12383;SDS011;6256;63.808;20.336;2022-08-19T09:03:10;8.20;;;5.15;;
12383;SDS011;6256;63.808;20.336;2022-08-19T09:08:52;8.75;;;5.32;;
12383;SDS011;6256;63.808;20.336;2022-08-19T09:16:53;7.35;;;5.07;;
12383;SDS011;6256;63.808;20.336;2022-08-19T09:19:19;6.28;;;4.88;;
12383;SDS011;6256;63.808;20.336;2022-08-19T09:21:44;9.82;;;5.43;;
12383;SDS011;6256;63.808;20.336;2022-08-19T09:24:10;7.57;;;4.88;;
12383;SDS011;6256;63.808;20.336;2022-08-19T09:26:36;7.68;;;5.20;;
12383;SDS011;6256;63.808;20.336;2022-08-19T09:29:02;8.05;;;5.03;;
12383;SDS011;6256;63.808;20.336;2022-08-19T09:31:30;6.50;;;4.95;;
12383;SDS011;6256;63.808;20.336;2022-08-19T09:33:57;5.30;;;4.63;;
12383;SDS011;6256;63.808;20.336;2022-08-19T09:36:25;7.20;;;5.03;;
12383;SDS011;6256;63.808;20.336;2022-08-19T09:38:55;8.38;;;5.57;;
12383;SDS011;6256;63.808;20.336;2022-08-19T09:41:22;7.10;;;4.75;;
12383;SDS011;6256;63.808;20.336;2022-08-19T09:43:50;6.40;;;4.75;;
12383;SDS011;6256;63.808;20.336;2022-08-19T09:46:18;6.15;;;4.80;;
12383;SDS011;6256;63.808;20.336;2022-08-19T09:48:46;5.05;;;4.38;;
12383;SDS011;6256;63.808;20.336;2022-08-19T09:51:18;5.55;;;4.40;;
12383;SDS011;6256;63.808;20.336;2022-08-19T09:53:47;6.40;;;4.68;;
12383;SDS011;6256;63.808;20.336;2022-08-19T09:56:19;4.32;;;3.88;;
12383;SDS011;6256;63.808;20.336;2022-08-19T09:58:46;5.47;;;4.05;;
12383;SDS011;6256;63.808;20.336;2022-08-19T10:01:20;5.38;;;4.05;;
12383;SDS011;6256;63.808;20.336;2022-08-19T10:03:51;4.80;;;4.30;;
12383;SDS011;6256;63.808;20.336;2022-08-19T10:06:20;5.63;;;3.88;;
12383;SDS011;6256;63.808;20.336;2022-08-19T10:08:48;4.90;;;3.90;;
12383;SDS011;6256;63.808;20.336;2022-08-19T10:11:14;4.68;;;4.05;;
12383;SDS011;6256;63.808;20.336;2022-08-19T10:13:42;4.55;;;4.15;;
12383;SDS011;6256;63.808;20.336;2022-08-19T10:16:10;5.25;;;4.45;;
12383;SDS011;6256;63.808;20.336;2022-08-19T10:18:38;4.20;;;3.80;;
12383;SDS011;6256;63.808;20.336;2022-08-19T10:21:30;4.53;;;4.03;;
12383;SDS011;6256;63.808;20.336;2022-08-19T10:23:56;4.78;;;4.38;;
12383;SDS011;6256;63.808;20.336;2022-08-19T10:26:24;6.03;;;4.68;;
12383;SDS011;6256;63.808;20.336;2022-08-19T10:28:54;5.25;;;4.75;;
12383;SDS011;6256;63.808;20.336;2022-08-19T10:31:23;4.70;;;4.20;;
12383;SDS011;6256;63.808;20.336;2022-08-19T10:33:51;5.55;;;4.93;;
12383;SDS011;6256;63.808;20.336;2022-08-19T10:36:23;6.70;;;4.90;;
12383;SDS011;6256;63.808;20.336;2022-08-19T10:39:01;5.25;;;4.75;;
12383;SDS011;6256;63.808;20.336;2022-08-19T10:41:32;5.40;;;4.85;;
12383;SDS011;6256;63.808;20.336;2022-08-19T10:44:01;5.13;;;4.63;;
12383;SDS011;6256;63.808;20.336;2022-08-19T10:46:30;5.35;;;4.85;;
12383;SDS011;6256;63.808;20.336;2022-08-19T10:48:57;4.78;;;4.32;;
12383;SDS011;6256;63.808;20.336;2022-08-19T10:51:24;7.07;;;5.50;;
12383;SDS011;6256;63.808;20.336;2022-08-19T10:54:08;5.00;;;4.38;;
12383;SDS011;6256;63.808;20.336;2022-08-19T10:56:35;5.10;;;4.60;;
12383;SDS011;6256;63.808;20.336;2022-08-19T10:59:17;6.30;;;4.75;;
12383;SDS011;6256;63.808;20.336;2022-08-19T11:01:44;5.28;;;4.45;;
12383;SDS011;6256;63.808;20.336;2022-08-19T11:04:11;5.55;;;4.55;;
12383;SDS011;6256;63.808;20.336;2022-08-19T11:06:38;4.35;;;3.95;;
12383;SDS011;6256;63.808;20.336;2022-08-19T11:09:06;5.43;;;4.43;;
12383;SDS011;6256;63.808;20.336;2022-08-19T11:11:33;4.90;;;4.32;;
12383;SDS011;6256;63.808;20.336;2022-08-19T11:14:13;4.85;;;4.35;;
12383;SDS011;6256;63.808;20.336;2022-08-19T11:16:41;5.70;;;4.68;;
12383;SDS011;6256;63.808;20.336;2022-08-19T11:19:08;5.50;;;4.80;;
12383;SDS011;6256;63.808;20.336;2022-08-19T11:21:36;5.30;;;4.57;;
12383;SDS011;6256;63.808;20.336;2022-08-19T11:24:09;5.40;;;4.88;;
12383;SDS011;6256;63.808;20.336;2022-08-19T11:26:37;6.10;;;4.55;;
12383;SDS011;6256;63.808;20.336;2022-08-19T11:29:04;4.80;;;4.30;;
12383;SDS011;6256;63.808;20.336;2022-08-19T11:31:31;6.70;;;4.78;;
12383;SDS011;6256;63.808;20.336;2022-08-19T11:34:03;4.85;;;4.35;;
12383;SDS011;6256;63.808;20.336;2022-08-19T11:36:30;5.75;;;4.65;;
12383;SDS011;6256;63.808;20.336;2022-08-19T11:38:57;5.45;;;4.47;;
12383;SDS011;6256;63.808;20.336;2022-08-19T11:41:23;5.20;;;4.70;;
12383;SDS011;6256;63.808;20.336;2022-08-19T11:43:50;5.03;;;4.10;;
12383;SDS011;6256;63.808;20.336;2022-08-19T11:46:17;4.57;;;4.18;;
12383;SDS011;6256;63.808;20.336;2022-08-19T11:48:43;5.63;;;4.55;;
12383;SDS011;6256;63.808;20.336;2022-08-19T11:51:10;5.03;;;4.53;;
12383;SDS011;6256;63.808;20.336;2022-08-19T11:53:39;6.03;;;5.22;;
12383;SDS011;6256;63.808;20.336;2022-08-19T11:56:05;5.55;;;4.88;;
12383;SDS011;6256;63.808;20.336;2022-08-19T11:58:31;5.22;;;4.72;;
12383;SDS011;6256;63.808;20.336;2022-08-19T12:00:57;5.47;;;4.97;;
12383;SDS011;6256;63.808;20.336;2022-08-19T12:03:25;5.97;;;5.38;;
12383;SDS011;6256;63.808;20.336;2022-08-19T12:05:52;6.35;;;4.53;;
12383;SDS011;6256;63.808;20.336;2022-08-19T12:08:18;5.35;;;4.85;;
12383;SDS011;6256;63.808;20.336;2022-08-19T12:10:44;6.07;;;4.93;;
12383;SDS011;6256;63.808;20.336;2022-08-19T12:13:13;5.95;;;5.15;;
12383;SDS011;6256;63.808;20.336;2022-08-19T12:15:44;5.88;;;5.28;;
12383;SDS011;6256;63.808;20.336;2022-08-19T12:18:12;6.30;;;5.70;;
12383;SDS011;6256;63.808;20.336;2022-08-19T12:20:42;7.22;;;5.25;;
12383;SDS011;6256;63.808;20.336;2022-08-19T12:23:08;5.53;;;4.97;;
12383;SDS011;6256;63.808;20.336;2022-08-19T12:25:35;6.13;;;5.53;;
12383;SDS011;6256;63.808;20.336;2022-08-19T12:28:02;6.13;;;5.18;;
12383;SDS011;6256;63.808;20.336;2022-08-19T12:30:28;5.90;;;5.10;;
12383;SDS011;6256;63.808;20.336;2022-08-19T12:32:57;6.63;;;4.95;;
12383;SDS011;6256;63.808;20.336;2022-08-19T12:35:22;5.68;;;5.13;;
12383;SDS011;6256;63.808;20.336;2022-08-19T12:37:48;5.85;;;5.28;;
12383;SDS011;6256;63.808;20.336;2022-08-19T12:40:15;5.80;;;5.07;;
12383;SDS011;6256;63.808;20.336;2022-08-19T12:42:44;8.20;;;5.82;;
12383;SDS011;6256;63.808;20.336;2022-08-19T12:45:10;6.18;;;5.25;;
12383;SDS011;6256;63.808;20.336;2022-08-19T12:47:37;7.53;;;5.35;;
12383;SDS011;6256;63.808;20.336;2022-08-19T12:50:04;6.88;;;6.18;;
12383;SDS011;6256;63.808;20.336;2022-08-19T12:52:34;7.18;;;6.03;;
12383;SDS011;6256;63.808;20.336;2022-08-19T12:55:06;6.95;;;6.25;;
12383;SDS011;6256;63.808;20.336;2022-08-19T12:57:33;5.85;;;5.20;;
12383;SDS011;6256;63.808;20.336;2022-08-19T13:00:07;5.75;;;5.15;;
12383;SDS011;6256;63.808;20.336;2022-08-19T13:02:42;6.82;;;5.68;;
12383;SDS011;6256;63.808;20.336;2022-08-19T13:05:11;6.75;;;6.03;;
12383;SDS011;6256;63.808;20.336;2022-08-19T13:07:41;7.68;;;6.03;;
12383;SDS011;6256;63.808;20.336;2022-08-19T13:10:09;7.43;;;6.70;;
12383;SDS011;6256;63.808;20.336;2022-08-19T13:12:36;7.70;;;6.63;;
12383;SDS011;6256;63.808;20.336;2022-08-19T13:15:04;9.25;;;6.43;;
12383;SDS011;6256;63.808;20.336;2022-08-19T13:17:30;7.53;;;6.65;;
12383;SDS011;6256;63.808;20.336;2022-08-19T13:19:58;8.10;;;6.82;;
12383;SDS011;6256;63.808;20.336;2022-08-19T13:22:24;8.02;;;7.05;;
12383;SDS011;6256;63.808;20.336;2022-08-19T13:24:50;8.07;;;7.10;;
12383;SDS011;6256;63.808;20.336;2022-08-19T13:27:16;9.35;;;6.90;;
12383;SDS011;6256;63.808;20.336;2022-08-19T13:29:42;9.38;;;7.20;;
12383;SDS011;6256;63.808;20.336;2022-08-19T13:32:26;7.82;;;7.03;;
12383;SDS011;6256;63.808;20.336;2022-08-19T13:35:12;10.73;;;6.85;;
12383;SDS011;6256;63.808;20.336;2022-08-19T13:37:38;7.40;;;6.57;;
12383;SDS011;6256;63.808;20.336;2022-08-19T13:40:07;8.30;;;6.63;;
12383;SDS011;6256;63.808;20.336;2022-08-19T13:42:42;9.18;;;7.50;;
12383;SDS011;6256;63.808;20.336;2022-08-19T13:45:09;7.40;;;6.60;;
12383;SDS011;6256;63.808;20.336;2022-08-19T13:47:39;7.68;;;6.95;;
12383;SDS011;6256;63.808;20.336;2022-08-19T13:50:07;8.55;;;7.55;;
12383;SDS011;6256;63.808;20.336;2022-08-19T13:52:35;8.57;;;6.63;;
12383;SDS011;6256;63.808;20.336;2022-08-19T13:55:02;7.88;;;7.18;;
12383;SDS011;6256;63.808;20.336;2022-08-19T13:57:29;7.97;;;7.18;;
12383;SDS011;6256;63.808;20.336;2022-08-19T13:59:55;7.97;;;6.75;;
12383;SDS011;6256;63.808;20.336;2022-08-19T14:02:23;7.32;;;6.63;;
12383;SDS011;6256;63.808;20.336;2022-08-19T14:04:49;7.35;;;6.65;;
12383;SDS011;6256;63.808;20.336;2022-08-19T14:07:15;7.65;;;6.88;;
12383;SDS011;6256;63.808;20.336;2022-08-19T14:09:41;7.35;;;6.65;;
12383;SDS011;6256;63.808;20.336;2022-08-19T14:12:06;8.63;;;6.30;;
12383;SDS011;6256;63.808;20.336;2022-08-19T14:14:36;7.55;;;6.75;;
12383;SDS011;6256;63.808;20.336;2022-08-19T14:17:05;7.50;;;6.65;;
12383;SDS011;6256;63.808;20.336;2022-08-19T14:19:32;8.30;;;6.82;;
12383;SDS011;6256;63.808;20.336;2022-08-19T14:21:58;6.85;;;6.15;;
12383;SDS011;6256;63.808;20.336;2022-08-19T14:24:23;8.45;;;6.70;;
12383;SDS011;6256;63.808;20.336;2022-08-19T14:26:49;7.35;;;6.70;;
12383;SDS011;6256;63.808;20.336;2022-08-19T14:29:15;8.40;;;6.72;;
12383;SDS011;6256;63.808;20.336;2022-08-19T14:31:41;6.80;;;6.15;;
12383;SDS011;6256;63.808;20.336;2022-08-19T14:34:08;6.60;;;6.03;;
12383;SDS011;6256;63.808;20.336;2022-08-19T14:36:35;6.63;;;5.95;;
12383;SDS011;6256;63.808;20.336;2022-08-19T14:39:01;6.60;;;5.93;;
12383;SDS011;6256;63.808;20.336;2022-08-19T14:41:27;6.72;;;6.07;;
12383;SDS011;6256;63.808;20.336;2022-08-19T14:43:55;8.07;;;6.22;;
12383;SDS011;6256;63.808;20.336;2022-08-19T14:46:22;7.35;;;6.20;;
12383;SDS011;6256;63.808;20.336;2022-08-19T14:48:51;6.68;;;6.07;;
12383;SDS011;6256;63.808;20.336;2022-08-19T14:51:17;7.53;;;6.82;;
12383;SDS011;6256;63.808;20.336;2022-08-19T14:53:44;5.88;;;5.30;;
12383;SDS011;6256;63.808;20.336;2022-08-19T14:56:14;7.03;;;6.15;;
12383;SDS011;6256;63.808;20.336;2022-08-19T14:58:42;6.55;;;5.93;;
12383;SDS011;6256;63.808;20.336;2022-08-19T15:01:08;7.03;;;6.38;;
12383;SDS011;6256;63.808;20.336;2022-08-19T15:03:36;7.18;;;6.25;;